createdAt,value
2018-04-18T00:00:44.829Z,76.95
2018-04-18T00:03:15.760Z,79.05
2018-04-18T00:05:46.605Z,72.07
2018-04-18T00:08:17.806Z,76.43
2018-04-18T00:10:48.591Z,83.57
2018-04-18T00:13:19.359Z,81.40
2018-04-18T00:15:51.601Z,88.85
2018-04-18T00:21:39.179Z,78.80
2018-04-18T00:24:09.956Z,76.10
2018-04-18T00:26:40.882Z,71.30
2018-04-18T00:29:11.725Z,74.65
2018-04-18T00:31:42.684Z,82.75
2018-04-18T00:34:13.417Z,74.70
2018-04-18T00:36:44.201Z,75.00
2018-04-18T00:39:15.006Z,72.53
2018-04-18T00:41:45.824Z,81.63
2018-04-18T00:44:16.788Z,80.38
2018-04-18T00:46:47.690Z,77.45
2018-04-18T00:49:18.616Z,81.90
2018-04-18T00:51:49.490Z,78.72
2018-04-18T00:54:20.460Z,78.10
2018-04-18T00:56:51.188Z,78.50
2018-04-18T00:59:22.104Z,73.10
2018-04-18T01:01:52.959Z,75.10
2018-04-18T01:04:23.919Z,72.97
2018-04-18T01:06:54.852Z,81.40
2018-04-18T01:09:25.778Z,73.80
2018-04-18T01:11:56.713Z,76.35
2018-04-18T01:14:27.694Z,71.18
2018-04-18T01:16:58.473Z,79.75
2018-04-18T01:22:23.523Z,73.30
2018-04-18T01:24:54.336Z,74.22
2018-04-18T01:27:25.178Z,78.00
2018-04-18T01:29:56.015Z,73.40
2018-04-18T01:32:26.847Z,71.43
2018-04-18T01:34:58.149Z,70.68
2018-04-18T01:37:28.974Z,70.12
2018-04-18T01:39:59.885Z,72.68
2018-04-18T01:42:31.829Z,63.92
2018-04-18T01:45:03.802Z,75.20
2018-04-18T01:47:35.146Z,66.50
2018-04-18T01:50:06.026Z,71.82
2018-04-18T01:52:36.991Z,73.50
2018-04-18T01:55:09.605Z,85.85
2018-04-18T01:57:40.415Z,72.85
2018-04-18T02:00:11.257Z,78.10
2018-04-18T02:02:42.116Z,73.18
2018-04-18T02:05:12.939Z,76.30
2018-04-18T02:07:43.765Z,76.05
2018-04-18T02:10:14.629Z,70.72
2018-04-18T02:12:45.392Z,70.10
2018-04-18T02:15:16.320Z,72.72
2018-04-18T02:17:47.262Z,70.62
2018-04-18T02:20:18.121Z,68.37
2018-04-18T02:22:49.025Z,67.80
2018-04-18T02:25:19.889Z,75.05
2018-04-18T02:27:50.905Z,73.95
2018-04-18T02:30:21.765Z,75.75
2018-04-18T02:32:52.624Z,65.72
2018-04-18T02:35:24.087Z,72.40
2018-04-18T02:37:55.065Z,80.00
2018-04-18T02:40:26.013Z,74.50
2018-04-18T02:42:56.910Z,75.78
2018-04-18T02:45:27.678Z,71.53
2018-04-18T02:47:58.517Z,79.00
2018-04-18T02:50:29.298Z,81.25
2018-04-18T02:53:00.586Z,74.68
2018-04-18T02:55:31.528Z,81.63
2018-04-18T02:58:02.520Z,75.82
2018-04-18T03:00:33.306Z,73.05
2018-04-18T03:03:04.175Z,78.20
2018-04-18T03:05:34.982Z,83.97
2018-04-18T03:08:05.817Z,79.12
2018-04-18T03:10:36.627Z,81.43
2018-04-18T03:13:07.358Z,77.82
2018-04-18T03:15:38.219Z,85.12
2018-04-18T03:18:09.049Z,78.35
2018-04-18T03:20:40.006Z,76.10
2018-04-18T03:23:10.790Z,75.80
2018-04-18T03:25:41.654Z,77.28
2018-04-18T03:28:12.503Z,74.37
2018-04-18T03:30:43.682Z,69.15
2018-04-18T03:33:14.547Z,64.80
2018-04-18T03:35:45.382Z,76.18
2018-04-18T03:38:16.243Z,75.53
2018-04-18T03:40:47.241Z,75.82
2018-04-18T03:43:18.013Z,71.25
2018-04-18T03:45:48.719Z,71.70
2018-04-18T03:48:19.449Z,67.18
2018-04-18T03:50:50.109Z,76.20
2018-04-18T03:53:20.900Z,79.35
2018-04-18T03:55:51.596Z,73.18
2018-04-18T03:58:22.302Z,76.30
2018-04-18T04:00:53.194Z,70.70
2018-04-18T04:03:23.856Z,69.00
2018-04-18T04:05:54.476Z,75.90
2018-04-18T04:08:25.323Z,70.90
2018-04-18T04:10:56.310Z,77.00
2018-04-18T04:13:27.161Z,64.40
2018-04-18T04:16:15.562Z,75.05
2018-04-18T04:18:57.723Z,72.22
2018-04-18T04:22:38.660Z,76.68
2018-04-18T04:25:09.513Z,76.25
2018-04-18T04:27:40.277Z,76.50
2018-04-18T04:30:10.976Z,76.72
2018-04-18T04:32:41.839Z,69.30
2018-04-18T04:35:12.609Z,71.87
2018-04-18T04:37:43.476Z,71.00
2018-04-18T04:40:14.205Z,71.95
2018-04-18T04:42:45.309Z,63.20
2018-04-18T04:45:16.075Z,66.15
2018-04-18T04:47:46.822Z,67.28
2018-04-18T04:50:17.559Z,71.55
2018-04-18T04:52:48.335Z,64.65
2018-04-18T04:55:19.092Z,75.07
2018-04-18T04:57:49.943Z,75.47
2018-04-18T05:00:20.761Z,77.37
2018-04-18T05:02:51.673Z,78.53
2018-04-18T05:05:22.348Z,65.87
2018-04-18T05:07:53.211Z,69.87
2018-04-18T05:10:24.123Z,72.32
2018-04-18T05:12:54.781Z,69.72
2018-04-18T05:15:25.552Z,80.65
2018-04-18T05:17:56.368Z,77.05
2018-04-18T05:20:27.217Z,85.05
2018-04-18T05:22:57.886Z,70.85
2018-04-18T05:38:27.428Z,76.55
2018-04-18T05:40:59.047Z,75.87
2018-04-18T05:43:29.973Z,75.50
2018-04-18T05:46:00.702Z,77.07
2018-04-18T05:48:31.648Z,76.65
2018-04-18T05:51:02.686Z,70.65
2018-04-18T05:53:34.490Z,76.87
2018-04-18T05:56:06.013Z,73.97
2018-04-18T05:58:36.913Z,77.12
2018-04-18T06:01:08.043Z,76.15
2018-04-18T06:03:39.009Z,81.63
2018-04-18T06:06:09.971Z,71.70
2018-04-18T06:08:41.171Z,78.75
2018-04-18T06:11:12.006Z,80.53
2018-04-18T06:13:43.012Z,79.43
2018-04-18T06:16:14.589Z,76.53
2018-04-18T06:18:45.606Z,83.45
2018-04-18T06:21:16.546Z,78.45
2018-04-18T06:23:48.770Z,78.30
2018-04-18T06:26:19.564Z,78.35
2018-04-18T06:28:50.215Z,83.55
2018-04-18T06:31:21.499Z,76.68
2018-04-18T06:33:52.868Z,81.55
2018-04-18T06:36:24.422Z,87.90
2018-04-18T06:38:55.625Z,80.22
2018-04-18T06:41:26.967Z,91.12
2018-04-18T06:43:58.029Z,86.75
2018-04-18T06:46:28.990Z,90.00
2018-04-18T06:48:59.769Z,87.30
2018-04-18T06:51:30.734Z,82.25
2018-04-18T06:54:02.969Z,89.45
2018-04-18T06:56:34.204Z,85.55
2018-04-18T06:59:05.434Z,88.45
2018-04-18T07:01:36.762Z,95.12
2018-04-18T07:04:08.037Z,84.65
2018-04-18T07:06:40.180Z,91.30
2018-04-18T07:09:11.634Z,83.47
2018-04-18T07:11:42.481Z,92.80
2018-04-18T07:14:13.390Z,82.97
2018-04-18T07:16:44.197Z,79.32
2018-04-18T07:19:14.985Z,82.78
2018-04-18T07:21:45.806Z,85.72
2018-04-18T07:24:16.611Z,88.10
2018-04-18T07:26:47.435Z,92.40
2018-04-18T07:29:18.247Z,88.80
2018-04-18T07:31:52.916Z,95.75
2018-04-18T07:34:23.888Z,82.07
2018-04-18T07:36:54.876Z,91.85
2018-04-18T07:39:26.159Z,83.90
2018-04-18T07:41:56.943Z,77.75
2018-04-18T07:44:28.016Z,88.03
2018-04-18T07:46:59.045Z,90.70
2018-04-18T07:49:34.317Z,93.18
2018-04-18T07:52:08.427Z,92.68
2018-04-18T07:54:39.949Z,94.50
2018-04-18T07:57:11.162Z,90.25
2018-04-18T07:59:42.144Z,88.62
2018-04-18T08:02:13.334Z,85.28
2018-04-18T08:04:45.339Z,89.45
2018-04-18T08:07:16.748Z,87.15
2018-04-18T08:09:48.030Z,92.00
2018-04-18T08:12:19.318Z,91.57
2018-04-18T08:14:50.454Z,89.00
2018-04-18T08:17:21.607Z,83.50
2018-04-18T08:19:52.805Z,88.55
2018-04-18T08:22:23.992Z,90.10
2018-04-18T08:24:55.468Z,87.47
2018-04-18T08:27:26.900Z,88.97
2018-04-18T08:29:58.383Z,98.37
2018-04-18T08:32:29.714Z,94.35
2018-04-18T08:35:02.463Z,85.50
2018-04-18T08:37:33.979Z,88.87
2018-04-18T08:40:05.345Z,94.37
2018-04-18T08:42:36.614Z,90.65
2018-04-18T08:45:07.745Z,94.32
2018-04-18T08:47:38.926Z,89.90
2018-04-18T08:50:09.887Z,89.75
2018-04-18T08:52:41.722Z,98.57
2018-04-18T08:55:15.138Z,92.88
2018-04-18T08:57:46.808Z,99.13
2018-04-18T09:00:18.361Z,96.87
2018-04-18T09:02:49.892Z,93.95
2018-04-18T09:05:21.262Z,95.00
2018-04-18T09:07:52.477Z,96.45
2018-04-18T09:10:23.629Z,93.75
2018-04-18T09:12:54.658Z,91.22
2018-04-18T09:15:26.860Z,97.45
2018-04-18T09:24:16.357Z,98.62
2018-04-18T09:26:47.586Z,95.00
2018-04-18T09:29:19.691Z,97.47
2018-04-18T09:31:51.771Z,89.78
2018-04-18T09:34:24.216Z,92.22
2018-04-18T09:36:56.505Z,87.93
2018-04-18T09:39:29.276Z,88.15
2018-04-18T09:42:00.678Z,98.85
2018-04-18T09:44:33.429Z,92.72
2018-04-18T09:47:06.340Z,96.20
2018-04-18T09:49:37.744Z,94.28
2018-04-18T09:52:10.287Z,84.57
2018-04-18T09:54:42.993Z,89.13
2018-04-18T09:57:15.377Z,92.45
2018-04-18T09:59:47.259Z,89.97
2018-04-18T10:02:19.843Z,90.97
2018-04-18T10:04:52.692Z,88.75
2018-04-18T10:07:24.546Z,89.40
2018-04-18T10:09:56.539Z,90.20
2018-04-18T10:12:31.216Z,87.32
2018-04-18T10:15:15.004Z,87.25
2018-04-18T10:17:53.947Z,99.75
2018-04-18T10:20:30.005Z,95.90
2018-04-18T10:23:04.780Z,93.55
2018-04-18T10:25:36.062Z,92.30
2018-04-18T10:28:10.807Z,95.10
2018-04-18T10:30:42.006Z,94.75
2018-04-18T10:33:15.457Z,93.37
2018-04-18T10:35:50.446Z,101.00
2018-04-18T10:38:22.486Z,101.40
2018-04-18T10:40:58.241Z,96.25
2018-04-18T10:43:39.686Z,102.80
2018-04-18T10:46:17.515Z,92.97
2018-04-18T10:49:08.365Z,107.72
2018-04-18T10:51:39.245Z,90.12
2018-04-18T10:54:11.050Z,93.37
2018-04-18T10:56:42.216Z,98.03
2018-04-18T10:59:14.208Z,95.97
2018-04-18T11:01:45.075Z,95.47
2018-04-18T11:04:16.152Z,89.37
2018-04-18T11:06:47.556Z,97.18
2018-04-18T11:09:18.887Z,98.85
2018-04-18T11:11:49.637Z,102.47
2018-04-18T11:14:20.595Z,97.93
2018-04-18T11:16:51.653Z,95.18
2018-04-18T11:19:22.657Z,95.18
2018-04-18T11:21:53.555Z,100.68
2018-04-18T11:24:24.814Z,97.60
2018-04-18T11:26:55.810Z,91.07
2018-04-18T11:29:27.232Z,92.65
2018-04-18T11:31:57.840Z,91.28
2018-04-18T11:34:28.450Z,93.45
2018-04-18T11:36:59.163Z,97.95
2018-04-18T11:39:29.797Z,102.05
2018-04-18T11:42:00.605Z,98.97
2018-04-18T11:44:31.695Z,100.55
2018-04-18T11:47:02.714Z,93.65
2018-04-18T11:49:36.537Z,92.85
2018-04-18T11:52:07.536Z,97.97
2018-04-18T11:54:38.328Z,91.60
2018-04-18T11:57:09.086Z,97.30
2018-04-18T11:59:40.232Z,96.63
2018-04-18T12:02:11.797Z,91.43
2018-04-18T12:04:43.228Z,98.28
2018-04-18T12:07:14.417Z,102.20
2018-04-18T12:09:45.777Z,92.82
2018-04-18T12:12:16.842Z,100.53
2018-04-18T12:14:47.889Z,92.25
2018-04-18T12:17:18.704Z,98.03
2018-04-18T12:19:49.356Z,102.87
2018-04-18T12:22:20.254Z,95.38
2018-04-18T12:24:51.172Z,99.05
2018-04-18T12:27:21.915Z,95.95
2018-04-18T12:29:52.643Z,93.65
2018-04-18T12:32:23.403Z,94.00
2018-04-18T12:34:53.997Z,87.72
2018-04-18T12:37:24.729Z,93.22
2018-04-18T12:39:55.492Z,97.75
2018-04-18T12:42:26.794Z,91.45
2018-04-18T12:44:57.352Z,89.15
2018-04-18T12:47:27.974Z,96.63
2018-04-18T12:49:58.823Z,100.10
2018-04-18T12:52:29.736Z,96.47
2018-04-18T12:55:00.743Z,94.85
2018-04-18T12:57:31.622Z,91.87
2018-04-18T13:00:02.523Z,89.72
2018-04-18T13:02:38.521Z,94.90
2018-04-18T13:05:09.579Z,90.40
2018-04-18T13:07:40.576Z,96.70
2018-04-18T13:10:12.550Z,90.57
2018-04-18T13:12:44.048Z,94.97
2018-04-18T13:15:16.693Z,94.35
2018-04-18T13:17:47.976Z,98.45
2018-04-18T13:20:19.448Z,98.07
2018-04-18T13:22:50.843Z,98.45
2018-04-18T13:25:22.033Z,105.72
2018-04-18T13:27:55.809Z,100.50
2018-04-18T13:30:26.996Z,108.30
2018-04-18T13:36:10.221Z,101.22
2018-04-18T13:38:41.096Z,108.68
2018-04-18T13:41:13.310Z,107.05
2018-04-18T13:43:46.081Z,101.28
2018-04-18T13:46:22.801Z,110.18
2018-04-18T13:48:55.871Z,111.35
2018-04-18T13:51:27.999Z,97.85
2018-04-18T13:53:59.126Z,97.72
2018-04-18T13:56:30.157Z,102.87
2018-04-18T13:59:01.437Z,106.07
2018-04-18T14:01:32.687Z,106.12
2018-04-18T14:04:03.799Z,97.53
2018-04-18T14:06:34.930Z,92.60
2018-04-18T14:09:06.722Z,98.05
2018-04-18T14:11:39.165Z,93.87
2018-04-18T14:16:48.138Z,99.57
2018-04-18T14:19:19.135Z,97.82
2018-04-18T14:21:50.706Z,101.18
2018-04-18T14:24:21.979Z,103.97
2018-04-18T14:26:52.854Z,97.80
2018-04-18T14:29:24.336Z,96.90
2018-04-18T14:31:55.741Z,94.80
2018-04-18T14:34:31.404Z,89.25
2018-04-18T14:37:07.327Z,96.70
2018-04-18T14:39:38.903Z,96.18
2018-04-18T14:42:09.919Z,100.07
2018-04-18T14:44:43.450Z,110.12
2018-04-18T14:47:16.200Z,91.35
2018-04-18T14:49:48.609Z,91.68
2018-04-18T14:52:19.590Z,98.85
2018-04-18T14:55:02.312Z,95.87
2018-04-18T14:57:35.276Z,101.32
2018-04-18T15:00:06.264Z,96.82
2018-04-18T15:02:37.230Z,98.50
2018-04-18T15:05:08.146Z,99.20
2018-04-18T15:07:39.136Z,102.05
2018-04-18T15:10:10.243Z,105.63
2018-04-18T15:12:41.808Z,97.95
2018-04-18T15:15:13.020Z,103.00
2018-04-18T15:17:45.861Z,100.50
2018-04-18T15:20:17.242Z,89.47
2018-04-18T15:22:48.433Z,93.90
2018-04-18T15:25:20.282Z,97.78
2018-04-18T15:34:14.747Z,102.72
2018-04-18T15:37:13.004Z,99.37
2018-04-18T15:40:06.074Z,99.13
2018-04-18T15:42:37.009Z,105.53
2018-04-18T15:45:09.943Z,100.65
2018-04-18T15:47:41.003Z,103.45
2018-04-18T15:50:12.507Z,93.18
2018-04-18T15:52:44.314Z,91.90
2018-04-18T16:01:08.399Z,94.85
2018-04-18T16:03:39.386Z,93.62
2018-04-18T16:06:10.029Z,97.20
2018-04-18T16:08:40.779Z,94.13
2018-04-18T16:11:11.808Z,97.80
2018-04-18T16:13:42.749Z,91.97
2018-04-18T16:16:13.536Z,94.82
2018-04-18T16:18:44.208Z,93.72
2018-04-18T16:21:15.311Z,97.72
2018-04-18T16:23:47.341Z,96.05
2018-04-18T16:26:18.248Z,94.57
2018-04-18T16:28:57.811Z,97.25
2018-04-18T16:31:29.226Z,98.35
2018-04-18T16:37:27.014Z,106.10
2018-04-18T16:39:59.223Z,96.35
2018-04-18T16:42:30.705Z,106.00
2018-04-18T16:45:15.190Z,111.62
2018-04-18T16:47:46.303Z,113.45
2018-04-18T16:50:17.356Z,102.62
2018-04-18T16:52:48.236Z,100.30
2018-04-18T16:55:19.241Z,97.85
2018-04-18T16:57:55.968Z,103.93
2018-04-18T17:00:26.592Z,97.10
2018-04-18T17:02:57.210Z,92.15
2018-04-18T17:05:27.890Z,95.00
2018-04-18T17:07:58.689Z,95.43
2018-04-18T17:10:29.521Z,97.47
2018-04-18T17:13:00.513Z,92.18
2018-04-18T17:15:31.377Z,94.57
2018-04-18T17:18:02.266Z,93.78
2018-04-18T17:20:33.715Z,95.45
2018-04-18T17:23:05.493Z,96.50
2018-04-18T17:25:36.415Z,94.90
2018-04-18T17:28:07.187Z,95.45
2018-04-18T17:30:38.038Z,91.12
2018-04-18T17:33:09.489Z,100.68
2018-04-18T17:35:40.290Z,100.05
2018-04-18T17:38:11.237Z,102.05
2018-04-18T17:40:42.048Z,94.62
2018-04-18T17:43:12.831Z,88.65
2018-04-18T17:45:43.819Z,86.55
2018-04-18T17:48:14.473Z,95.72
2018-04-18T17:50:45.194Z,95.62
2018-04-18T17:53:15.947Z,85.68
2018-04-18T17:55:46.743Z,91.53
2018-04-18T17:58:17.341Z,89.90
2018-04-18T18:00:49.274Z,84.93
2018-04-18T18:03:20.099Z,88.55
2018-04-18T18:05:50.917Z,88.70
2018-04-18T18:08:21.740Z,92.90
2018-04-18T18:10:52.967Z,129.27
2018-04-18T18:13:25.032Z,97.62
2018-04-18T18:15:55.817Z,94.00
2018-04-18T18:18:27.720Z,89.40
2018-04-18T18:20:58.492Z,88.53
2018-04-18T18:23:29.902Z,91.00
2018-04-18T18:26:00.663Z,90.57
2018-04-18T18:28:31.425Z,92.57
2018-04-18T18:31:02.013Z,91.00
2018-04-18T18:33:32.956Z,84.37
2018-04-18T18:36:04.631Z,93.20
2018-04-18T18:38:35.357Z,84.72
2018-04-18T18:41:06.398Z,88.55
2018-04-18T18:43:37.112Z,90.35
2018-04-18T18:46:08.078Z,92.50
2018-04-18T18:48:38.743Z,89.05
2018-04-18T18:51:09.577Z,89.37
2018-04-18T18:53:40.547Z,86.25
2018-04-18T18:56:11.624Z,82.95
2018-04-18T18:58:42.339Z,89.82
2018-04-18T19:01:13.309Z,86.97
2018-04-18T19:03:44.236Z,83.47
2018-04-18T19:06:15.196Z,92.00
2018-04-18T19:08:46.050Z,82.70
2018-04-18T19:11:17.010Z,84.53
2018-04-18T19:13:48.304Z,86.40
2018-04-18T19:16:19.329Z,83.22
2018-04-18T19:18:50.156Z,86.35
2018-04-18T19:21:21.225Z,89.18
2018-04-18T19:23:52.064Z,87.60
2018-04-18T19:26:22.731Z,87.45
2018-04-18T19:28:54.368Z,93.95
2018-04-18T19:31:25.163Z,88.00
2018-04-18T19:33:56.096Z,86.43
2018-04-18T19:36:27.283Z,82.10
2018-04-18T19:38:58.226Z,88.53
2018-04-18T19:41:29.555Z,84.75
2018-04-18T19:44:00.381Z,81.15
2018-04-18T19:46:31.260Z,88.97
2018-04-18T19:49:01.931Z,79.93
2018-04-18T19:51:32.671Z,86.20
2018-04-18T19:54:03.335Z,83.05
2018-04-18T19:56:35.318Z,84.65
2018-04-18T19:59:06.355Z,76.97
2018-04-18T20:01:37.349Z,79.40
2018-04-18T20:04:09.329Z,85.75
2018-04-18T20:06:41.025Z,80.60
2018-04-18T20:09:12.286Z,84.10
2018-04-18T20:11:43.140Z,82.60
2018-04-18T20:14:14.353Z,103.68
2018-04-18T20:16:45.294Z,92.62
2018-04-18T20:19:16.469Z,88.78
2018-04-18T20:21:47.430Z,82.25
2018-04-18T20:24:18.188Z,85.25
2018-04-18T20:26:48.993Z,84.28
2018-04-18T20:29:19.901Z,86.30
2018-04-18T20:31:50.756Z,91.20
2018-04-18T20:34:21.704Z,82.78
2018-04-18T20:36:52.586Z,83.25
2018-04-18T20:39:23.425Z,87.62
2018-04-18T20:41:56.249Z,88.32
2018-04-18T20:44:27.039Z,81.87
2018-04-18T20:46:57.852Z,86.70
2018-04-18T20:49:28.898Z,88.65
2018-04-18T20:51:59.806Z,86.90
2018-04-18T20:54:32.297Z,78.28
2018-04-18T20:57:03.187Z,83.30
2018-04-18T20:59:33.974Z,81.45
2018-04-18T21:02:05.840Z,81.90
2018-04-18T21:04:36.575Z,81.40
2018-04-18T21:07:07.287Z,82.55
2018-04-18T21:09:38.216Z,81.37
2018-04-18T21:12:09.099Z,78.40
2018-04-18T21:14:41.214Z,76.05
2018-04-18T21:17:12.255Z,79.87
2018-04-18T21:19:43.169Z,84.97
2018-04-18T21:22:14.032Z,85.10
2018-04-18T21:24:45.033Z,83.12
2018-04-18T21:27:15.909Z,84.03
2018-04-18T21:29:48.350Z,82.65
2018-04-18T21:32:19.497Z,81.55
2018-04-18T21:34:50.369Z,81.70
2018-04-18T21:37:21.282Z,78.05
2018-04-18T21:39:52.102Z,78.45
2018-04-18T21:42:23.052Z,90.55
2018-04-18T21:44:54.101Z,81.37
2018-04-18T21:47:25.012Z,76.78
2018-04-18T21:49:56.466Z,79.95
2018-04-18T21:52:27.249Z,82.40
2018-04-18T21:54:58.139Z,82.20
2018-04-18T21:57:29.129Z,81.20
2018-04-18T22:00:00.431Z,84.65
2018-04-18T22:02:31.359Z,86.18
2018-04-18T22:05:02.509Z,83.53
2018-04-18T22:07:34.263Z,85.50
2018-04-18T22:10:05.417Z,81.47
2018-04-18T22:12:36.282Z,89.55
2018-04-18T22:15:07.303Z,85.25
2018-04-18T22:17:38.154Z,85.18
2018-04-18T22:20:09.074Z,86.28
2018-04-18T22:22:40.166Z,85.25
2018-04-18T22:25:11.374Z,88.78
2018-04-18T22:27:42.625Z,88.45
2018-04-18T22:30:13.776Z,86.82
2018-04-18T22:32:44.957Z,80.05
2018-04-18T22:35:15.944Z,74.60
2018-04-18T22:37:46.974Z,84.10
2018-04-18T22:40:17.850Z,85.38
2018-04-18T22:42:48.753Z,80.72
2018-04-18T22:45:19.608Z,83.28
2018-04-18T22:47:50.510Z,84.00
2018-04-18T22:50:21.656Z,80.87
2018-04-18T22:52:52.630Z,77.20
2018-04-18T22:55:23.728Z,80.22
2018-04-18T22:57:54.548Z,82.72
2018-04-18T23:00:44.422Z,86.22
2018-04-18T23:03:15.353Z,82.75
2018-04-18T23:05:46.202Z,85.30
2018-04-18T23:08:17.112Z,78.18
2018-04-18T23:10:47.922Z,82.28
2018-04-18T23:13:18.744Z,80.00
2018-04-18T23:15:49.549Z,83.50
2018-04-18T23:18:20.486Z,84.35
2018-04-18T23:20:51.360Z,81.87
2018-04-18T23:23:22.215Z,82.75
2018-04-18T23:25:53.123Z,83.47
2018-04-18T23:28:24.074Z,81.20
2018-04-18T23:30:54.958Z,82.50
2018-04-18T23:33:25.790Z,78.57
2018-04-18T23:35:56.810Z,77.35
2018-04-18T23:38:27.603Z,82.80
2018-04-18T23:40:58.510Z,81.30
2018-04-18T23:53:03.975Z,88.15
2018-04-18T23:58:59.910Z,76.10
